createdAt,value
2022-09-12T00:01:10.237Z,4.57
2022-09-12T00:03:40.690Z,5.50
2022-09-12T00:06:11.566Z,5.55
2022-09-12T00:08:39.683Z,5.97
2022-09-12T00:11:10.932Z,5.13
2022-09-12T00:13:41.791Z,5.43
2022-09-12T00:16:17.520Z,5.88
2022-09-12T00:18:47.844Z,8.95
2022-09-12T00:21:16.567Z,7.40
2022-09-12T00:23:44.903Z,4.25
2022-09-12T00:26:13.157Z,4.47
2022-09-12T00:28:42.039Z,6.68
2022-09-12T00:31:12.987Z,5.13
2022-09-12T00:33:41.065Z,2.88
2022-09-12T00:36:16.913Z,2.72
2022-09-12T00:38:46.226Z,4.43
2022-09-12T00:41:18.686Z,3.88
2022-09-12T00:43:48.326Z,4.50
2022-09-12T00:46:27.388Z,4.85
2022-09-12T00:48:59.826Z,8.43
2022-09-12T00:51:34.073Z,5.05
2022-09-12T00:54:06.354Z,7.32
2022-09-12T00:56:34.655Z,5.97
2022-09-12T00:59:06.793Z,4.63
2022-09-12T01:01:35.692Z,4.65
2022-09-12T01:04:04.468Z,4.40
2022-09-12T01:06:37.605Z,5.75
2022-09-12T01:09:06.022Z,5.15
2022-09-12T01:11:37.677Z,5.88
2022-09-12T01:14:05.742Z,7.07
2022-09-12T01:16:36.956Z,8.13
2022-09-12T01:19:20.261Z,8.02
2022-09-12T01:22:06.507Z,6.07
2022-09-12T01:25:02.243Z,6.38
2022-09-12T01:27:50.407Z,4.80
2022-09-12T01:30:44.745Z,4.85
2022-09-12T01:33:41.122Z,5.78
2022-09-12T01:36:34.727Z,7.32
2022-09-12T01:39:04.876Z,5.35
2022-09-12T01:41:44.139Z,7.85
2022-09-12T01:44:23.164Z,9.13
2022-09-12T01:46:59.306Z,6.15
2022-09-12T01:49:34.193Z,6.40
2022-09-12T01:54:40.221Z,10.07
2022-09-12T01:57:14.902Z,6.68
2022-09-12T01:59:48.845Z,5.30
2022-09-12T02:02:24.055Z,5.95
2022-09-12T02:04:56.864Z,5.53
2022-09-12T02:07:30.626Z,7.63
2022-09-12T02:10:04.272Z,5.60
2022-09-12T02:12:40.539Z,6.35
2022-09-12T02:15:11.411Z,6.25
2022-09-12T02:17:44.105Z,5.50
2022-09-12T02:20:37.190Z,6.03
2022-09-12T02:23:10.108Z,5.38
2022-09-12T02:25:43.118Z,3.65
2022-09-12T02:28:15.139Z,4.78
2022-09-12T02:30:50.436Z,7.70
2022-09-12T02:33:26.763Z,3.58
2022-09-12T02:36:01.683Z,4.40
2022-09-12T02:41:02.252Z,5.45
2022-09-12T02:43:30.285Z,5.07
2022-09-12T02:45:58.327Z,5.57
2022-09-12T02:48:31.638Z,4.90
2022-09-12T02:51:00.060Z,6.68
2022-09-12T02:53:28.635Z,10.45
2022-09-12T02:55:56.771Z,5.47
2022-09-12T02:58:29.034Z,4.75
2022-09-12T03:01:05.749Z,10.82
2022-09-12T03:03:55.262Z,6.13
2022-09-12T03:06:32.181Z,6.70
2022-09-12T03:09:10.709Z,7.80
2022-09-12T03:11:52.942Z,11.20
2022-09-12T03:14:36.776Z,4.65
2022-09-12T03:17:13.340Z,7.00
2022-09-12T03:19:53.815Z,6.47
2022-09-12T03:22:28.538Z,7.13
2022-09-12T03:25:04.386Z,4.13
2022-09-12T03:27:37.786Z,4.53
2022-09-12T03:30:07.059Z,3.33
2022-09-12T03:32:46.412Z,3.00
2022-09-12T03:35:20.952Z,4.28
2022-09-12T03:37:52.294Z,2.63
2022-09-12T03:40:21.101Z,3.20
2022-09-12T03:42:49.257Z,6.60
2022-09-12T03:45:17.719Z,5.47
2022-09-12T03:47:45.750Z,5.03
2022-09-12T03:50:15.324Z,5.38
2022-09-12T03:52:43.334Z,5.10
2022-09-12T03:55:11.390Z,6.93
2022-09-12T03:57:39.696Z,7.90
2022-09-12T04:00:09.081Z,8.30
2022-09-12T04:02:37.130Z,12.80
2022-09-12T04:05:06.113Z,11.90
2022-09-12T04:07:35.511Z,20.38
2022-09-12T04:10:04.067Z,20.02
2022-09-12T04:12:32.151Z,23.80
2022-09-12T04:15:00.049Z,22.48
2022-09-12T04:17:28.075Z,10.43
2022-09-12T04:19:56.045Z,5.40
2022-09-12T04:22:24.336Z,5.97
2022-09-12T04:24:53.736Z,9.05
2022-09-12T04:27:21.748Z,7.72
2022-09-12T04:29:49.657Z,8.02
2022-09-12T04:32:17.709Z,8.38
2022-09-12T04:34:47.078Z,6.72
2022-09-12T04:37:15.242Z,7.38
2022-09-12T04:39:43.281Z,8.13
2022-09-12T04:42:12.670Z,8.13
2022-09-12T04:44:40.662Z,4.15
2022-09-12T04:47:08.897Z,9.05
2022-09-12T04:49:36.966Z,11.77
2022-09-12T04:52:04.945Z,12.68
2022-09-12T04:54:33.028Z,10.30
2022-09-12T04:57:01.053Z,10.52
2022-09-12T04:59:30.467Z,9.95
2022-09-12T05:01:58.828Z,7.15
2022-09-12T05:04:26.817Z,8.80
2022-09-12T05:06:54.881Z,7.18
2022-09-12T05:09:22.804Z,6.55
2022-09-12T05:12:06.168Z,9.02
2022-09-12T05:14:36.117Z,9.80
2022-09-12T05:17:06.088Z,11.20
2022-09-12T05:19:34.537Z,9.18
2022-09-12T05:22:02.619Z,7.82
2022-09-12T05:24:30.604Z,11.25
2022-09-12T05:26:58.690Z,10.45
2022-09-12T05:29:26.756Z,7.18
2022-09-12T05:31:56.093Z,8.07
2022-09-12T05:34:24.545Z,7.78
2022-09-12T05:36:52.541Z,9.75
2022-09-12T05:39:20.625Z,8.85
2022-09-12T05:41:48.787Z,9.98
2022-09-12T05:44:17.715Z,16.65
2022-09-12T05:46:48.616Z,9.52
2022-09-12T05:49:18.131Z,7.70
2022-09-12T05:51:46.770Z,8.30
2022-09-12T05:54:17.800Z,8.45
2022-09-12T05:56:46.639Z,6.90
2022-09-12T05:59:16.282Z,4.85
2022-09-12T06:01:44.661Z,4.07
2022-09-12T06:04:12.903Z,4.57
2022-09-12T06:06:45.218Z,9.95
2022-09-12T06:09:14.646Z,5.75
2022-09-12T06:11:42.993Z,4.65
2022-09-12T06:14:13.229Z,5.60
2022-09-12T06:16:41.812Z,5.25
2022-09-12T06:19:16.034Z,4.57
2022-09-12T06:21:46.167Z,7.63
2022-09-12T06:24:14.370Z,7.85
2022-09-12T06:26:42.328Z,4.22
2022-09-12T06:29:11.858Z,4.78
2022-09-12T06:31:41.797Z,4.25
2022-09-12T06:34:11.716Z,6.35
2022-09-12T06:36:41.317Z,7.50
2022-09-12T06:39:13.306Z,6.35
2022-09-12T06:41:44.019Z,6.10
2022-09-12T06:44:14.325Z,5.53
2022-09-12T06:46:42.744Z,12.25
2022-09-12T06:49:11.446Z,8.35
2022-09-12T06:51:39.519Z,4.30
2022-09-12T06:54:07.649Z,7.32
2022-09-12T06:56:37.809Z,5.05
2022-09-12T06:59:05.839Z,4.10
2022-09-12T07:01:34.489Z,5.60
2022-09-12T07:04:04.382Z,5.13
2022-09-12T07:06:37.553Z,4.88
2022-09-12T07:09:08.136Z,6.47
2022-09-12T07:11:39.697Z,6.72
2022-09-12T07:14:09.756Z,4.45
2022-09-12T07:16:38.195Z,6.78
2022-09-12T07:19:07.722Z,6.10
2022-09-12T07:21:39.847Z,6.25
2022-09-12T07:24:09.945Z,18.60
2022-09-12T07:26:42.254Z,7.13
2022-09-12T07:32:04.238Z,7.63
2022-09-12T07:34:32.300Z,8.25
2022-09-12T07:37:00.317Z,6.40
2022-09-12T07:39:28.288Z,9.77
2022-09-12T07:41:58.683Z,7.18
2022-09-12T07:44:27.026Z,9.55
2022-09-12T07:46:55.082Z,10.70
2022-09-12T07:49:23.066Z,9.85
2022-09-12T07:51:51.279Z,7.78
2022-09-12T07:54:19.254Z,9.30
2022-09-12T07:56:47.325Z,7.97
2022-09-12T07:59:30.256Z,9.85
2022-09-12T08:02:05.312Z,6.28
2022-09-12T08:04:33.291Z,7.22
2022-09-12T08:07:01.303Z,6.25
2022-09-12T08:09:29.163Z,9.05
2022-09-12T08:11:57.125Z,8.13
2022-09-12T08:14:26.670Z,8.82
2022-09-12T08:16:54.734Z,6.57
2022-09-12T08:19:23.423Z,9.20
2022-09-12T08:21:51.433Z,7.32
2022-09-12T08:24:19.398Z,8.68
2022-09-12T08:26:47.404Z,8.10
2022-09-12T08:29:15.598Z,8.35
2022-09-12T08:31:46.448Z,10.20
2022-09-12T08:34:17.067Z,9.55
2022-09-12T08:36:45.069Z,9.50
2022-09-12T08:39:14.361Z,9.25
2022-09-12T08:41:45.014Z,6.45
2022-09-12T08:44:39.999Z,6.03
2022-09-12T08:47:23.653Z,8.52
2022-09-12T08:50:05.390Z,6.57
2022-09-12T08:52:40.883Z,5.82
2022-09-12T08:55:31.339Z,7.88
2022-09-12T08:58:01.231Z,7.07
2022-09-12T09:00:40.657Z,8.23
2022-09-12T09:03:31.200Z,10.27
2022-09-12T09:06:06.950Z,5.32
2022-09-12T09:08:57.123Z,6.80
2022-09-12T09:11:40.176Z,5.35
2022-09-12T09:14:40.613Z,5.82
2022-09-12T09:17:13.566Z,2.78
2022-09-12T09:19:50.859Z,5.15
2022-09-12T09:22:30.039Z,6.53
2022-09-12T09:25:03.867Z,5.22
2022-09-12T09:27:40.880Z,3.97
2022-09-12T09:30:15.963Z,4.47
2022-09-12T09:32:48.153Z,2.70
2022-09-12T09:35:20.522Z,4.95
2022-09-12T09:38:01.588Z,4.50
2022-09-12T09:40:40.592Z,6.13
2022-09-12T09:43:19.794Z,14.10
2022-09-12T09:45:48.149Z,5.25
2022-09-12T09:48:20.317Z,3.17
2022-09-12T09:50:51.027Z,2.65
2022-09-12T09:53:33.839Z,5.25
2022-09-12T09:56:06.733Z,4.00
2022-09-12T09:58:36.735Z,3.38
2022-09-12T10:01:07.354Z,5.32
2022-09-12T10:03:39.332Z,3.45
2022-09-12T10:06:26.773Z,4.80
2022-09-12T10:09:18.548Z,3.47
2022-09-12T10:11:46.754Z,3.45
2022-09-12T10:14:31.671Z,8.27
2022-09-12T10:16:59.963Z,4.75
2022-09-12T10:19:36.405Z,3.72
2022-09-12T10:22:06.810Z,3.50
2022-09-12T10:24:37.993Z,3.25
2022-09-12T10:27:15.484Z,2.92
2022-09-12T10:29:47.837Z,4.07
2022-09-12T10:32:26.353Z,2.35
2022-09-12T10:35:01.820Z,2.45
2022-09-12T10:37:35.518Z,4.10
2022-09-12T10:40:05.523Z,1.60
2022-09-12T10:42:49.573Z,13.68
2022-09-12T10:45:23.618Z,3.08
2022-09-12T10:47:52.347Z,5.38
2022-09-12T10:50:23.207Z,3.30
2022-09-12T10:52:52.817Z,2.35
2022-09-12T10:55:26.155Z,3.70
2022-09-12T10:58:06.433Z,4.40
2022-09-12T11:00:41.323Z,4.03
2022-09-12T11:03:17.371Z,5.93
2022-09-12T11:05:56.586Z,6.80
2022-09-12T11:08:49.229Z,3.33
2022-09-12T11:11:32.146Z,3.85
2022-09-12T11:14:11.794Z,2.13
2022-09-12T11:16:48.601Z,2.50
2022-09-12T11:19:32.505Z,2.50
2022-09-12T11:22:22.946Z,4.40
2022-09-12T11:25:13.857Z,4.00
2022-09-12T11:28:01.962Z,3.38
2022-09-12T11:30:39.243Z,3.17
2022-09-12T11:33:26.280Z,2.55
2022-09-12T11:35:57.405Z,2.00
2022-09-12T11:38:43.124Z,3.72
2022-09-12T11:41:22.443Z,4.35
2022-09-12T11:43:55.674Z,2.15
2022-09-12T11:46:29.242Z,1.60
2022-09-12T11:49:01.105Z,2.05
2022-09-12T11:51:35.359Z,4.07
2022-09-12T11:54:15.631Z,6.93
2022-09-12T11:56:47.888Z,1.63
2022-09-12T11:59:27.706Z,3.13
2022-09-12T12:02:00.359Z,9.35
2022-09-12T12:04:38.199Z,4.38
2022-09-12T12:07:08.921Z,2.53
2022-09-12T12:09:37.533Z,3.40
2022-09-12T12:12:12.840Z,8.23
2022-09-12T12:14:46.321Z,32.03
2022-09-12T12:17:16.869Z,4.18
2022-09-12T12:19:46.662Z,2.58
2022-09-12T12:22:19.256Z,3.60
2022-09-12T12:25:29.624Z,3.45
2022-09-12T12:28:02.025Z,22.80
2022-09-12T12:31:05.746Z,15.02
2022-09-12T12:34:07.183Z,3.60
2022-09-12T12:36:41.430Z,2.47
2022-09-12T12:39:49.987Z,3.30
2022-09-12T12:43:04.567Z,6.50
2022-09-12T12:46:11.037Z,4.43
2022-09-12T12:49:06.207Z,16.33
2022-09-12T12:51:51.205Z,43.05
2022-09-12T12:57:19.417Z,9.95
2022-09-12T12:59:50.273Z,12.13
2022-09-12T13:02:24.031Z,10.60
2022-09-12T13:04:55.417Z,16.50
2022-09-12T13:07:32.625Z,13.68
2022-09-12T13:10:02.405Z,7.55
2022-09-12T13:12:35.160Z,3.88
2022-09-12T13:15:04.858Z,4.95
2022-09-12T13:17:39.718Z,3.15
2022-09-12T13:20:30.069Z,3.63
2022-09-12T13:22:59.039Z,31.10
2022-09-12T13:25:33.688Z,16.08
2022-09-12T13:28:05.807Z,5.07
2022-09-12T13:30:36.166Z,3.35
2022-09-12T13:33:18.011Z,8.82
2022-09-12T13:36:26.918Z,48.53
2022-09-12T13:39:06.575Z,105.07
2022-09-12T13:41:47.566Z,13.98
2022-09-12T13:44:20.889Z,6.18
2022-09-12T13:46:49.732Z,3.35
2022-09-12T13:49:23.197Z,7.15
2022-09-12T13:52:03.069Z,5.05
2022-09-12T13:54:32.390Z,20.15
2022-09-12T13:57:00.636Z,28.38
2022-09-12T13:59:28.843Z,54.17
2022-09-12T14:01:56.878Z,43.42
2022-09-12T14:04:43.702Z,24.80
2022-09-12T14:07:17.331Z,16.38
2022-09-12T14:09:47.113Z,6.93
2022-09-12T14:12:25.360Z,7.50
2022-09-12T14:14:54.623Z,33.03
2022-09-12T14:17:29.870Z,15.50
2022-09-12T14:19:59.833Z,17.92
2022-09-12T14:22:29.920Z,7.75
2022-09-12T14:24:59.595Z,3.88
2022-09-12T14:27:30.417Z,5.20
2022-09-12T14:30:03.826Z,3.53
2022-09-12T14:32:31.895Z,6.18
2022-09-12T14:35:19.308Z,4.18
2022-09-12T14:37:50.944Z,4.80
2022-09-12T14:40:21.347Z,5.50
2022-09-12T14:42:50.985Z,4.85
2022-09-12T14:45:26.695Z,5.55
2022-09-12T14:47:55.238Z,8.30
2022-09-12T14:50:26.287Z,8.13
2022-09-12T14:53:21.221Z,22.08
2022-09-12T14:55:53.499Z,30.52
2022-09-12T14:58:26.589Z,51.25
2022-09-12T15:01:01.804Z,20.35
2022-09-12T15:03:33.350Z,6.38
2022-09-12T15:06:02.955Z,3.33
2022-09-12T15:08:33.415Z,3.65
2022-09-12T15:11:01.816Z,4.90
2022-09-12T15:13:30.821Z,4.60
2022-09-12T15:16:00.741Z,4.65
2022-09-12T15:18:30.409Z,4.30
2022-09-12T15:21:03.027Z,3.45
2022-09-12T15:23:35.945Z,4.65
2022-09-12T15:26:04.433Z,3.63
2022-09-12T15:28:33.112Z,6.93
2022-09-12T15:31:07.454Z,4.57
2022-09-12T15:33:35.607Z,4.57
2022-09-12T15:36:03.976Z,2.58
2022-09-12T15:38:33.426Z,4.78
2022-09-12T15:41:01.330Z,3.40
2022-09-12T15:43:29.478Z,3.90
2022-09-12T15:45:59.175Z,4.28
2022-09-12T15:48:27.164Z,2.75
2022-09-12T15:51:01.388Z,3.60
2022-09-12T15:53:29.552Z,3.13
2022-09-12T15:55:58.907Z,3.78
2022-09-12T15:58:26.784Z,3.38
2022-09-12T16:00:54.719Z,3.78
2022-09-12T16:03:25.042Z,3.30
2022-09-12T16:05:57.303Z,3.58
2022-09-12T16:08:25.260Z,3.53
2022-09-12T16:10:56.964Z,3.60
2022-09-12T16:13:27.411Z,3.22
2022-09-12T16:15:57.941Z,3.55
2022-09-12T16:18:26.219Z,6.07
2022-09-12T16:20:54.531Z,11.77
2022-09-12T16:23:22.739Z,12.40
2022-09-12T16:25:58.421Z,13.70
2022-09-12T16:28:28.341Z,10.00
2022-09-12T16:30:56.720Z,9.02
2022-09-12T16:33:24.985Z,5.75
2022-09-12T16:35:54.890Z,5.63
2022-09-12T16:38:23.108Z,4.90
2022-09-12T16:40:51.007Z,3.67
2022-09-12T16:43:18.877Z,3.15
2022-09-12T16:45:48.237Z,2.88
2022-09-12T16:48:16.125Z,3.65
2022-09-12T16:50:44.444Z,5.72
2022-09-12T16:53:13.201Z,9.20
2022-09-12T16:55:41.197Z,10.30
2022-09-12T16:58:09.099Z,4.88
2022-09-12T17:00:36.953Z,7.82
2022-09-12T17:03:06.222Z,6.32
2022-09-12T17:05:34.170Z,4.82
2022-09-12T17:08:03.039Z,5.72
2022-09-12T17:10:31.217Z,4.50
2022-09-12T17:12:59.269Z,4.57
2022-09-12T17:15:27.390Z,3.75
2022-09-12T17:17:55.272Z,5.07
2022-09-12T17:20:24.589Z,3.80
2022-09-12T17:22:52.456Z,4.03
2022-09-12T17:25:23.380Z,5.85
2022-09-12T17:27:51.243Z,6.57
2022-09-12T17:30:19.168Z,4.63
2022-09-12T17:32:47.036Z,7.75
2022-09-12T17:35:15.008Z,7.18
2022-09-12T17:37:44.720Z,6.15
2022-09-12T17:40:13.945Z,8.85
2022-09-12T17:42:43.289Z,5.05
2022-09-12T17:45:17.711Z,7.13
2022-09-12T17:47:46.491Z,7.65
2022-09-12T17:50:30.853Z,6.47
2022-09-12T17:53:00.819Z,7.85
2022-09-12T17:55:32.130Z,5.82
2022-09-12T17:58:01.321Z,7.55
2022-09-12T18:00:43.518Z,6.18
2022-09-12T18:03:11.571Z,6.15
2022-09-12T18:05:46.661Z,6.75
2022-09-12T18:08:16.367Z,7.10
2022-09-12T18:10:44.279Z,8.18
2022-09-12T18:13:12.476Z,11.50
2022-09-12T18:15:40.818Z,12.77
2022-09-12T18:18:08.815Z,11.20
2022-09-12T18:20:36.847Z,17.58
2022-09-12T18:23:04.803Z,19.83
2022-09-12T18:25:34.047Z,24.52
2022-09-12T18:28:04.151Z,16.67
2022-09-12T18:30:35.208Z,13.82
2022-09-12T18:33:03.119Z,17.88
2022-09-12T18:35:31.991Z,23.10
2022-09-12T18:37:59.910Z,19.23
2022-09-12T18:40:27.885Z,21.50
2022-09-12T18:42:57.117Z,21.48
2022-09-12T18:45:25.037Z,19.98
2022-09-12T18:47:52.995Z,17.17
2022-09-12T18:50:21.013Z,17.48
2022-09-12T18:52:48.857Z,17.58
2022-09-12T18:55:17.094Z,20.40
2022-09-12T18:57:45.220Z,13.77
2022-09-12T19:00:15.682Z,17.50
2022-09-12T19:02:44.776Z,16.85
2022-09-12T19:05:13.641Z,19.83
2022-09-12T19:07:41.687Z,16.02
2022-09-12T19:10:10.114Z,18.15
2022-09-12T19:12:37.967Z,21.25
2022-09-12T19:15:06.836Z,20.05
2022-09-12T19:17:36.151Z,15.73
2022-09-12T19:20:05.840Z,16.50
2022-09-12T19:22:33.778Z,19.25
2022-09-12T19:25:01.687Z,16.02
2022-09-12T19:27:29.657Z,16.45
2022-09-12T19:29:57.523Z,21.52
2022-09-12T19:32:25.591Z,31.70
2022-09-12T19:34:54.934Z,25.67
2022-09-12T19:37:22.874Z,20.38
2022-09-12T19:39:50.979Z,18.33
2022-09-12T19:42:18.897Z,20.08
2022-09-12T19:44:46.867Z,16.63
2022-09-12T19:47:14.797Z,19.50
2022-09-12T19:49:42.716Z,35.08
2022-09-12T19:52:15.567Z,37.83
2022-09-12T19:54:45.519Z,26.15
2022-09-12T19:57:13.389Z,26.70
2022-09-12T19:59:41.390Z,19.73
2022-09-12T20:02:09.354Z,24.73
2022-09-12T20:04:39.053Z,20.77
2022-09-12T20:07:06.912Z,20.45
2022-09-12T20:09:36.152Z,20.85
2022-09-12T20:12:04.120Z,17.73
2022-09-12T20:14:32.024Z,20.85
2022-09-12T20:16:59.900Z,18.05
2022-09-12T20:19:28.166Z,19.35
2022-09-12T20:21:56.059Z,17.90
2022-09-12T20:24:23.934Z,21.80
2022-09-12T20:26:54.648Z,18.98
2022-09-12T20:29:22.495Z,15.45
2022-09-12T20:31:50.683Z,16.25
2022-09-12T20:34:20.649Z,15.50
2022-09-12T20:36:49.176Z,16.35
2022-09-12T20:39:19.895Z,16.00
2022-09-12T20:41:48.072Z,14.27
2022-09-12T20:44:17.596Z,13.00
2022-09-12T20:46:45.573Z,14.07
2022-09-12T20:49:13.593Z,17.02
2022-09-12T20:51:41.490Z,16.75
2022-09-12T20:54:09.456Z,17.88
2022-09-12T20:56:38.765Z,11.13
2022-09-12T20:59:06.697Z,44.70
2022-09-12T21:01:36.120Z,12.07
2022-09-12T21:04:04.427Z,15.40
2022-09-12T21:06:32.951Z,17.13
2022-09-12T21:09:00.969Z,13.30
2022-09-12T21:11:29.258Z,7.35
2022-09-12T21:13:57.930Z,8.55
2022-09-12T21:16:26.121Z,14.95
2022-09-12T21:18:57.283Z,9.18
2022-09-12T21:21:26.387Z,6.57
2022-09-12T21:23:55.419Z,9.88
2022-09-12T21:26:23.342Z,8.05
2022-09-12T21:28:51.269Z,9.88
2022-09-12T21:31:19.254Z,14.23
2022-09-12T21:33:47.320Z,13.80
2022-09-12T21:36:16.710Z,9.27
2022-09-12T21:38:44.933Z,17.10
2022-09-12T21:41:15.240Z,8.52
2022-09-12T21:43:44.132Z,7.65
2022-09-12T21:46:12.956Z,6.07
2022-09-12T21:48:40.966Z,8.88
2022-09-12T21:51:09.043Z,7.75
2022-09-12T21:53:38.800Z,9.45
2022-09-12T21:56:09.360Z,9.93
2022-09-12T21:58:37.731Z,7.85
2022-09-12T22:01:08.750Z,7.72
2022-09-12T22:03:36.867Z,7.90
2022-09-12T22:06:07.444Z,19.23
2022-09-12T22:08:36.412Z,17.00
2022-09-12T22:11:09.578Z,18.23
2022-09-12T22:13:39.317Z,18.15
2022-09-12T22:16:08.175Z,16.00
2022-09-12T22:18:36.982Z,15.30
2022-09-12T22:21:07.018Z,15.70
2022-09-12T22:23:52.654Z,12.32
2022-09-12T22:26:22.241Z,8.45
2022-09-12T22:28:50.473Z,10.00
2022-09-12T22:31:19.090Z,8.00
2022-09-12T22:33:47.488Z,9.93
2022-09-12T22:36:15.845Z,8.23
2022-09-12T22:38:43.917Z,12.32
2022-09-12T22:41:13.340Z,12.55
2022-09-12T22:43:43.164Z,11.48
2022-09-12T22:46:13.406Z,9.85
2022-09-12T22:48:42.683Z,11.93
2022-09-12T22:51:12.017Z,11.35
2022-09-12T22:53:40.361Z,8.68
2022-09-12T22:56:09.909Z,8.95
2022-09-12T22:58:38.420Z,9.05
2022-09-12T23:01:08.392Z,13.43
2022-09-12T23:03:37.287Z,16.30
2022-09-12T23:06:06.167Z,14.27
2022-09-12T23:08:36.327Z,14.80
2022-09-12T23:11:05.893Z,12.15
2022-09-12T23:13:34.297Z,15.70
2022-09-12T23:16:03.762Z,14.48
2022-09-12T23:18:36.759Z,13.63
2022-09-12T23:21:07.158Z,12.80
2022-09-12T23:23:36.099Z,11.75
2022-09-12T23:26:09.229Z,10.35
2022-09-12T23:28:37.751Z,10.75
2022-09-12T23:31:06.109Z,10.45
2022-09-12T23:33:35.543Z,14.07
2022-09-12T23:36:06.229Z,13.48
2022-09-12T23:38:35.241Z,16.05
2022-09-12T23:41:04.517Z,12.25
2022-09-12T23:43:34.067Z,13.23
2022-09-12T23:46:02.495Z,15.23
2022-09-12T23:48:30.619Z,14.43
2022-09-12T23:51:00.166Z,10.95
2022-09-12T23:53:29.576Z,13.32
2022-09-12T23:55:57.816Z,11.75
2022-09-12T23:58:26.534Z,9.80
